Sky Valley (157, 625) Station Data

Red Flag Warning: No
Fire Weather Zone: 250
SDGE Region: Mountain Empire
Lat/Lon: 32.721/-116.702

Observations

Time Wind Speed/Gust Temp(F) RH Fuel Moist Fuel Temp(F) Dewpt(F) Tmax(F) Tmin(F) Accum Precip 10-min Precip SL Press(mb)
5/24 8:30am 200 1 G 3 67° 40% - - 42° 68.9° 57.5° - - -
5/24 8:20am 211 2 G 4 65° 44% - - 42° 67.9° 57.5° - - -
5/24 8:10am 92 2 G 4 67° 35% - - 38° 67.9° 57.5° - - -
5/24 8:00am 335 0 G 1 66° 33% - - 36° 67.2° 57.5° - - -
5/24 7:50am 233 2 G 4 64° 42% - - 40° 64.4° 57.5° - - -
5/24 7:40am 233 1 G 4 63° 37% - - 37° 64° 57.5° - - -
5/24 7:30am 211 1 G 2 63° 43% - - 40° 63.7° 57.5° - - -
5/24 7:20am 28 3 G 4 62° 36% - - 35° 63.7° 57.5° - - -
5/24 7:10am 51 3 G 4 61° 47% - - 41° 63.7° 57.5° - - -
5/24 7:00am 71 2 G 3 62° 45% - - 40° 63.7° 57.5° - - -
5/24 6:50am 344 2 G 4 60° 45% - - 39° 63.7° 57.5° - - -
5/24 6:40am 185 3 G 4 61° 43% - - 38° 63.7° 57.5° - - -
5/24 6:30am 211 2 G 3 62° 40% - - 37° 63.7° 57.5° - - -
5/24 6:20am 301 2 G 3 61° 40% - - 36° 63.7° 57.5° - - -
5/24 6:10am 258 2 G 4 60° 41% - - 36° 63.7° 57.5° - - -
5/24 6:00am 296 1 G 4 58° 45% - - 37° 63.7° 57.5° - - -
5/24 5:50am 267 2 G 4 59° 43% - - 36° 63.7° 57.7° - - -
5/24 5:40am 318 3 G 4 59° 43% - - 36° 63.7° 57.8° - - -
5/24 5:30am 310 3 G 5 59° 44% - - 37° 63.7° 57.8° - - -
5/24 5:20am 282 2 G 2 59° 44% - - 37° 63.7° 57.8° - - -
5/24 5:10am 277 2 G 4 58° 46% - - 38° 63.7° 57.8° - - -
5/24 5:00am 270 2 G 4 58° 46% - - 38° 63.7° 57.8° - - -
5/24 4:50am 313 2 G 4 59° 48% - - 39° 63.7° 58.1° - - -
5/24 4:40am 292 2 G 4 59° 46% - - 38° 63.7° 58.2° - - -
5/24 4:30am 295 3 G 4 59° 46% - - 38° 63.7° 58.2° - - -
5/24 4:20am 310 2 G 4 59° 46% - - 39° 63.7° 58.5° - - -
5/24 4:10am 323 4 G 5 60° 45% - - 39° 63.7° 58.5° - - -
5/24 4:00am 303 2 G 4 60° 48% - - 40° 63.7° 58.5° - - -
5/24 3:50am 283 2 G 4 61° 50% - - 42° 63.7° 58.5° - - -
5/24 3:40am 266 3 G 3 60° 50% - - 42° 63.7° 58.5° - - -
5/24 3:30am 322 3 G 5 59° 53% - - 42° 63.7° 58.5° - - -
5/24 3:20am 35 2 G 3 61° 51% - - 43° 63.7° 60.3° - - -
5/24 3:10am 337 2 G 4 61° 50% - - 42° 63.7° 60.3° - - -
5/24 3:00am 276 2 G 4 62° 52% - - 44° 63.7° 60.3° - - -
5/24 2:50am 253 3 G 4 61° 52% - - 43° 63.7° 60.3° - - -
5/24 2:40am 265 2 G 3 61° 54% - - 44° 63.7° 60.3° - - -
5/24 2:30am 302 2 G 4 62° 53% - - 44° 63.7° 60.9° - - -
5/24 2:20am 253 1 G 2 63° 49% - - 44° 63.7° 61.3° - - -
5/24 2:10am 281 1 G 2 62° 54% - - 46° 63.5° 61.3° - - -
5/24 2:00am 310 2 G 3 62° 57% - - 46° 63.5° 61.3° - - -
5/24 1:50am 16 2 G 4 63° 56% - - 47° 63.5° 61.3° - - -
5/24 1:40am 316 3 G 5 62° 57% - - 47° 63.5° 61.3° - - -
5/24 1:30am 331 2 G 4 62° 57% - - 47° 63.5° 61.3° - - -
5/24 1:20am 281 2 G 4 62° 58% - - 47° 63.5° 61.3° - - -
5/24 1:10am 243 3 G 5 63° 56% - - 47° 63.5° 61.7° - - -
5/24 1:00am 312 3 G 5 63° 60% - - 49° 63.5° 61.7° - - -
5/24 12:50am 297 3 G 5 62° 60% - - 48° 63.5° 61.7° - - -
5/24 12:40am 266 2 G 3 62° 60% - - 49° 63.5° 61.9° - - -
5/24 12:30am 325 3 G 5 63° 61% - - 49° 63.5° 62.1° - - -
5/24 12:20am 328 2 G 4 63° 61% - - 49° 63.5° 62.7° - - -
5/24 12:10am 334 3 G 4 63° 60% - - 49° 63.5° 62.9° - - -
5/24 12:00am 283 2 G 5 64° 59% - - 49° 92.4° 60.8° - - -
5/23 11:50pm 290 2 G 3 64° 59% - - 49° 92.4° 60.8° - - -
5/23 11:40pm 310 2 G 4 64° 58% - - 49° 92.4° 60.8° - - -
5/23 11:30pm 322 2 G 4 65° 57% - - 49° 92.4° 60.8° - - -
5/23 11:20pm 293 2 G 5 64° 57% - - 49° 92.4° 60.8° - - -
5/23 11:10pm 324 3 G 5 65° 56% - - 49° 92.4° 60.8° - - -
5/23 11:00pm 267 2 G 4 66° 54% - - 49° 92.4° 60.8° - - -
5/23 10:50pm 331 3 G 5 66° 55% - - 49° 92.4° 60.8° - - -
5/23 10:40pm 335 2 G 4 66° 54% - - 49° 92.4° 60.8° - - -
5/23 10:30pm 307 3 G 5 66° 54% - - 49° 92.4° 60.8° - - -
5/23 10:20pm 244 3 G 7 66° 54% - - 49° 92.4° 60.8° - - -
5/23 10:10pm 278 2 G 5 66° 55% - - 50° 92.4° 60.8° - - -
5/23 10:00pm 298 3 G 4 67° 54% - - 50° 92.4° 60.8° - - -
5/23 9:50pm 327 4 G 4 68° 52% - - 50° 92.4° 60.8° - - -
5/23 9:40pm 323 5 G 6 68° 52% - - 50° 92.4° 60.8° - - -
5/23 9:30pm 337 5 G 7 68° 51% - - 49° 92.4° 60.8° - - -
5/23 9:20pm 352 5 G 6 69° 48% - - 49° 92.4° 60.8° - - -
5/23 9:10pm 357 4 G 6 70° 47% - - 49° 92.4° 60.8° - - -
5/23 9:00pm 332 4 G 6 70° 47% - - 48° 92.4° 60.8° - - -
5/23 8:50pm 353 3 G 5 70° 45% - - 48° 92.4° 60.8° - - -
5/23 8:40pm 305 2 G 4 71° 43% - - 47° 92.4° 60.8° - - -
5/23 8:30pm 260 3 G 5 72° 43% - - 48° 92.4° 60.8° - - -
5/23 8:20pm 227 3 G 5 72° 43% - - 48° 92.4° 60.8° - - -
5/23 8:10pm 284 2 G 6 72° 42% - - 48° 92.4° 60.8° - - -
5/23 8:00pm 311 2 G 5 72° 42% - - 48° 92.4° 60.8° - - -
5/23 7:50pm 356 2 G 4 73° 40% - - 48° 92.4° 60.8° - - -
5/23 7:40pm 235 1 G 3 75° 38% - - 47° 92.4° 60.8° - - -
5/23 7:30pm 221 2 G 4 75° 36% - - 47° 92.4° 60.8° - - -
5/23 7:20pm 258 5 G 10 75° 38% - - 48° 92.4° 60.8° - - -
5/23 7:10pm 274 6 G 10 75° 40% - - 49° 92.4° 60.8° - - -
5/23 7:00pm 271 10 G 16 76° 38% - - 48° 92.4° 60.8° - - -
5/23 6:50pm 275 17 G 21 77° 36% - - 48° 92.4° 60.8° - - -
5/23 6:40pm 279 15 G 21 78° 36% - - 49° 92.4° 60.8° - - -
5/23 6:30pm 269 12 G 17 79° 35% - - 49° 92.4° 60.8° - - -
5/23 6:20pm 261 11 G 15 79° 33% - - 48° 92.4° 60.8° - - -
5/23 6:10pm 255 10 G 16 80° 33% - - 48° 92.4° 60.8° - - -
5/23 6:00pm 254 10 G 17 80° 32% - - 48° 92.4° 60.8° - - -
5/23 5:50pm 250 9 G 15 81° 32% - - 48° 92.4° 60.8° - - -
5/23 5:40pm 258 7 G 11 82° 31% - - 49° 92.4° 60.8° - - -
5/23 5:30pm 279 7 G 11 82° 31% - - 48° 92.4° 60.8° - - -
5/23 5:20pm 281 7 G 13 82° 30% - - 48° 92.4° 60.8° - - -
5/23 5:10pm 281 8 G 14 82° 30% - - 47° 92.4° 60.8° - - -
5/23 5:00pm 286 11 G 18 82° 29% - - 47° 92.4° 60.8° - - -
5/23 4:50pm 293 11 G 18 82° 29% - - 46° 92.4° 60.8° - - -
5/23 4:40pm 291 15 G 21 81° 27% - - 45° 92.4° 60.8° - - -
5/23 4:30pm 286 16 G 26 81° 28% - - 45° 92.4° 60.8° - - -
5/23 4:20pm 285 16 G 24 81° 29% - - 46° 92.4° 60.8° - - -
5/23 4:10pm 285 18 G 25 81° 30% - - 47° 92.4° 60.8° - - -
5/23 4:00pm 287 20 G 27 81° 27% - - 44° 92.4° 60.8° - - -
5/23 3:50pm 284 20 G 28 81° 26% - - 44° 92.4° 60.8° - - -
5/23 3:40pm 283 22 G 28 81° 29% - - 45° 92.4° 60.8° - - -
5/23 3:30pm 277 22 G 33 81° 32% - - 48° 92.4° 60.8° - - -
5/23 3:20pm 271 20 G 26 80° 37% - - 52° 92.4° 60.8° - - -
5/23 3:10pm 269 21 G 29 79° 40% - - 53° 92.4° 60.8° - - -
5/23 3:00pm 263 22 G 29 80° 41% - - 54° 92.4° 60.8° - - -
5/23 2:50pm 261 21 G 27 81° 39% - - 54° 92.4° 60.8° - - -
5/23 2:40pm 267 19 G 24 82° 37% - - 53° 92.4° 60.8° - - -
5/23 2:30pm 283 16 G 22 84° 33% - - 52° 92.4° 60.8° - - -
5/23 2:20pm 284 16 G 22 85° 31% - - 51° 92.4° 60.8° - - -
5/23 2:10pm 288 17 G 22 85° 30% - - 50° 92.4° 60.8° - - -
5/23 2:00pm 289 17 G 22 86° 29% - - 50° 92.4° 60.8° - - -
5/23 1:50pm 285 17 G 22 86° 28% - - 49° 92.4° 60.8° - - -
5/23 1:40pm 289 17 G 24 87° 26% - - 48° 92.4° 60.8° - - -
5/23 1:30pm 282 16 G 21 87° 24% - - 46° 92.4° 60.8° - - -
5/23 1:20pm 289 14 G 20 88° 23% - - 46° 92.4° 60.8° - - -
5/23 1:10pm 292 15 G 20 88° 25% - - 47° 92.4° 60.8° - - -
5/23 1:00pm 279 15 G 24 87° 26% - - 47° 92.4° 60.8° - - -
5/23 12:50pm 276 17 G 24 87° 26% - - 48° 92.4° 60.8° - - -
5/23 12:40pm 271 16 G 20 88° 24% - - 46° 92.4° 60.8° - - -
5/23 12:30pm 272 17 G 22 88° 23% - - 46° 92.4° 60.8° - - -
5/23 12:20pm 269 15 G 23 90° 20% - - 44° 92.4° 60.8° - - -
5/23 12:10pm 285 9 G 15 90° 18% - - 40° 92.4° 60.8° - - -
5/23 12:00pm 276 13 G 17 89° 19% - - 42° 92.4° 60.8° - - -
5/23 11:50am 281 12 G 18 90° 19% - - 42° 92.4° 60.8° - - -
5/23 11:40am 246 10 G 18 91° 18% - - 41° 92.4° 60.8° - - -
5/23 11:30am 212 4 G 10 90° 17% - - 39° 92.2° 60.8° - - -
5/23 11:20am 177 5 G 11 90° 18% - - 41° 91° 60.8° - - -
5/23 11:10am 163 5 G 10 90° 15% - - 37° 90.7° 60.8° - - -
5/23 11:00am 155 4 G 8 88° 16% - - 37° 89.7° 60.8° - - -
5/23 10:50am 138 3 G 8 88° 19% - - 40° 88.7° 60.8° - - -
5/23 10:40am 146 3 G 6 87° 19% - - 40° 88.3° 60.8° - - -
5/23 10:30am 189 2 G 5 86° 20% - - 40° 86.5° 60.8° - - -
5/23 10:20am 114 3 G 6 84° 20% - - 40° 85.5° 60.8° - - -
5/23 10:10am 91 2 G 6 84° 21% - - 39° 85.3° 60.8° - - -
5/23 10:00am 105 3 G 6 82° 22% - - 39° 82.8° 60.8° - - -
5/23 9:50am 101 3 G 6 82° 21% - - 38° 82.6° 60.8° - - -
5/23 9:40am 95 1 G 4 81° 23% - - 40° 82.6° 60.8° - - -
5/23 9:30am 93 3 G 6 80° 24% - - 40° 80.4° 60.8° - - -
5/23 9:20am 150 2 G 5 80° 22% - - 38° 80.2° 60.8° - - -
5/23 9:10am 115 2 G 4 78° 21% - - 35° 79.6° 60.8° - - -
5/23 9:00am 110 2 G 5 78° 24% - - 38° 78.8° 60.8° - - -
5/23 8:50am 213 1 G 2 77° 24% - - 38° 77.9° 60.8° - - -
5/23 8:40am 161 1 G 2 75° 25% - - 37° 76.8° 60.8° - - -
5/23 8:30am 209 1 G 2 73° 26% - - 36° 74.1° 60.8° - - -
5/23 8:20am 219 1 G 2 72° 29% - - 38° 72.4° 60.8° - - -
5/23 8:10am 120 1 G 2 71° 30% - - 38° 72.4° 60.8° - - -
5/23 8:00am 78 2 G 3 69° 34% - - 40° 70.5° 60.8° - - -
5/23 7:50am 68 1 G 3 68° 38% - - 42° 69° 60.8° - - -
5/23 7:40am 64 2 G 3 67° 37% - - 40° 69° 60.8° - - -
5/23 7:30am 76 1 G 3 68° 34% - - 38° 69° 60.8° - - -
5/23 7:20am 300 0 G 2 65° 34% - - 36° 66.9° 60.8° - - -
5/23 7:10am 50 2 G 3 64° 34% - - 35° 66.9° 60.8° - - -
5/23 7:00am 344 1 G 3 65° 35% - - 36° 66.9° 60.8° - - -
5/23 6:50am 303 0 G 1 65° 32% - - 35° 66.9° 60.8° - - -
5/23 6:40am 193 0 G 1 66° 31% - - 34° 66.9° 60.8° - - -
5/23 6:30am 285 0 G 2 65° 32% - - 34° 66.9° 60.8° - - -
5/23 6:20am 274 2 G 3 63° 36% - - 35° 66.9° 60.8° - - -
5/23 6:10am 257 2 G 4 63° 35% - - 35° 66.9° 60.8° - - -
5/23 6:00am 287 1 G 3 63° 35% - - 35° 66.9° 60.8° - - -